createdAt,value
2018-02-09T00:00:23.409Z,5.60
2018-02-09T00:02:50.956Z,5.50
2018-02-09T00:05:18.663Z,5.50
2018-02-09T00:07:46.228Z,5.50
2018-02-09T00:10:13.873Z,5.40
2018-02-09T00:12:41.401Z,5.40
2018-02-09T00:15:08.982Z,5.40
2018-02-09T00:17:36.554Z,5.40
2018-02-09T00:20:04.083Z,5.40
2018-02-09T00:22:43.568Z,5.40
2018-02-09T00:25:11.859Z,5.20
2018-02-09T00:27:40.194Z,5.30
2018-02-09T00:30:07.723Z,5.30
2018-02-09T00:32:35.211Z,5.30
2018-02-09T00:35:02.758Z,5.40
2018-02-09T00:37:30.293Z,5.40
2018-02-09T00:39:57.848Z,5.40
2018-02-09T00:42:25.440Z,5.30
2018-02-09T00:44:52.915Z,5.30
2018-02-09T00:47:21.082Z,5.30
2018-02-09T00:49:48.635Z,5.30
2018-02-09T00:52:16.181Z,5.30
2018-02-09T00:54:43.749Z,5.30
2018-02-09T00:57:12.252Z,5.30
2018-02-09T00:59:39.870Z,5.40
2018-02-09T01:02:07.469Z,5.50
2018-02-09T01:04:35.213Z,5.50
2018-02-09T01:07:02.875Z,5.40
2018-02-09T01:09:30.511Z,5.40
2018-02-09T01:11:58.072Z,5.50
2018-02-09T01:14:25.596Z,5.50
2018-02-09T01:16:53.138Z,5.40
2018-02-09T01:19:20.776Z,5.40
2018-02-09T01:21:48.333Z,5.40
2018-02-09T01:24:15.897Z,5.40
2018-02-09T01:26:43.455Z,5.40
2018-02-09T01:29:10.987Z,5.50
2018-02-09T01:31:38.523Z,5.50
2018-02-09T01:34:05.972Z,5.50
2018-02-09T01:36:34.341Z,5.40
2018-02-09T01:39:01.875Z,5.40
2018-02-09T01:41:29.405Z,5.40
2018-02-09T01:43:57.721Z,5.50
2018-02-09T01:46:25.292Z,5.50
2018-02-09T01:48:52.791Z,5.50
2018-02-09T01:51:21.074Z,5.50
2018-02-09T01:53:48.619Z,5.50
2018-02-09T01:56:16.185Z,5.50
2018-02-09T01:58:44.484Z,5.50
2018-02-09T02:01:12.029Z,5.50
2018-02-09T02:03:39.579Z,5.50
2018-02-09T02:06:07.918Z,5.40
2018-02-09T02:08:35.478Z,5.40
2018-02-09T02:11:03.056Z,5.40
2018-02-09T02:13:30.501Z,5.30
2018-02-09T02:15:58.016Z,5.30
2018-02-09T02:18:25.680Z,5.30
2018-02-09T02:20:53.302Z,5.30
2018-02-09T02:23:21.586Z,5.30
2018-02-09T02:25:49.129Z,5.20
2018-02-09T02:28:16.685Z,5.20
2018-02-09T02:30:44.284Z,5.30
2018-02-09T02:33:11.825Z,5.30
2018-02-09T02:35:39.331Z,5.30
2018-02-09T02:38:06.917Z,5.30
2018-02-09T02:40:34.466Z,5.20
2018-02-09T02:43:01.977Z,5.30
2018-02-09T02:45:30.262Z,5.20
2018-02-09T02:47:57.825Z,5.30
2018-02-09T02:50:25.491Z,5.20
2018-02-09T02:52:53.030Z,5.20
2018-02-09T02:55:21.304Z,5.30
2018-02-09T02:57:49.565Z,5.30
2018-02-09T03:00:17.187Z,5.30
2018-02-09T03:02:44.782Z,5.30
2018-02-09T03:05:12.323Z,5.30
2018-02-09T03:07:39.837Z,5.10
2018-02-09T03:10:07.351Z,5.10
2018-02-09T03:12:34.853Z,5.10
2018-02-09T03:15:03.011Z,5.20
2018-02-09T03:17:31.306Z,5.20
2018-02-09T03:19:58.859Z,5.20
2018-02-09T03:22:26.415Z,5.20
2018-02-09T03:24:54.706Z,5.10
2018-02-09T03:27:22.297Z,5.10
2018-02-09T03:29:49.848Z,5.20
2018-02-09T03:32:17.362Z,5.20
2018-02-09T03:34:44.867Z,5.30
2018-02-09T03:37:12.416Z,5.30
2018-02-09T03:39:39.993Z,5.30
2018-02-09T03:42:07.578Z,5.40
2018-02-09T03:44:35.105Z,5.30
2018-02-09T03:47:02.619Z,5.30
2018-02-09T03:49:30.924Z,5.30
2018-02-09T03:51:58.496Z,5.30
2018-02-09T03:54:26.182Z,5.30
2018-02-09T03:56:53.761Z,5.30
2018-02-09T03:59:21.356Z,5.40
2018-02-09T04:01:48.902Z,5.40
2018-02-09T04:04:16.469Z,5.30
2018-02-09T04:06:44.053Z,5.30
2018-02-09T04:09:11.560Z,5.30
2018-02-09T04:11:39.127Z,5.30
2018-02-09T04:14:06.653Z,5.30
2018-02-09T04:16:34.127Z,5.20
2018-02-09T04:19:01.945Z,5.20
2018-02-09T04:21:29.484Z,5.20
2018-02-09T04:23:58.551Z,5.20
2018-02-09T04:26:26.238Z,5.20
2018-02-09T04:28:54.550Z,5.30
2018-02-09T04:31:22.109Z,5.30
2018-02-09T04:33:49.644Z,5.30
2018-02-09T04:36:17.234Z,5.30
2018-02-09T04:38:44.793Z,5.20
2018-02-09T04:41:12.350Z,5.20
2018-02-09T04:43:40.018Z,5.20
2018-02-09T04:46:07.590Z,5.20
2018-02-09T04:48:35.085Z,5.20
2018-02-09T04:51:02.650Z,5.20
2018-02-09T04:53:31.061Z,5.20
2018-02-09T04:55:58.631Z,5.20
2018-02-09T04:58:26.164Z,5.10
2018-02-09T05:00:53.718Z,5.20
2018-02-09T05:03:22.081Z,5.20
2018-02-09T05:05:49.529Z,5.20
2018-02-09T05:08:17.104Z,5.20
2018-02-09T05:10:45.371Z,5.40
2018-02-09T05:13:13.698Z,5.30
2018-02-09T05:15:41.466Z,5.30
2018-02-09T05:18:09.594Z,5.30
2018-02-09T05:20:37.911Z,5.30
2018-02-09T05:23:05.691Z,5.30
2018-02-09T05:25:33.222Z,5.30
2018-02-09T05:28:00.784Z,5.30
2018-02-09T05:30:28.309Z,5.30
2018-02-09T05:32:56.658Z,5.50
2018-02-09T05:35:24.183Z,5.50
2018-02-09T05:37:51.858Z,5.40
2018-02-09T05:40:19.458Z,5.40
2018-02-09T05:42:46.916Z,5.30
2018-02-09T05:45:14.482Z,5.20
2018-02-09T05:47:42.031Z,5.30
2018-02-09T05:50:11.105Z,5.40
2018-02-09T05:52:38.646Z,5.40
2018-02-09T05:55:06.201Z,5.40
2018-02-09T05:57:33.802Z,5.40
2018-02-09T06:00:01.363Z,5.30
2018-02-09T06:02:28.974Z,5.40
2018-02-09T06:04:56.506Z,5.40
2018-02-09T06:07:24.072Z,5.30
2018-02-09T06:09:52.410Z,5.40
2018-02-09T06:12:20.018Z,5.40
2018-02-09T06:14:48.280Z,5.40
2018-02-09T06:17:16.737Z,5.30
2018-02-09T06:19:44.256Z,5.30
2018-02-09T06:22:11.822Z,5.30
2018-02-09T06:24:39.291Z,5.30
2018-02-09T06:27:06.804Z,5.40
2018-02-09T06:29:35.050Z,5.40
2018-02-09T06:32:02.620Z,5.40
2018-02-09T06:34:30.270Z,5.40
2018-02-09T06:36:57.847Z,5.50
2018-02-09T06:39:25.573Z,5.50
2018-02-09T06:41:53.147Z,5.40
2018-02-09T06:44:21.458Z,5.40
2018-02-09T06:46:49.849Z,5.50
2018-02-09T06:49:17.462Z,5.50
2018-02-09T06:51:45.048Z,5.50
2018-02-09T06:54:13.398Z,5.50
2018-02-09T06:56:40.988Z,5.50
2018-02-09T06:59:08.488Z,5.40
2018-02-09T07:01:36.084Z,5.40
2018-02-09T07:04:03.623Z,5.50
2018-02-09T07:06:31.181Z,5.50
2018-02-09T07:08:58.845Z,5.60
2018-02-09T07:11:26.398Z,5.60
2018-02-09T07:13:53.965Z,5.50
2018-02-09T07:16:21.580Z,5.70
2018-02-09T07:18:49.260Z,5.80
2018-02-09T07:21:17.052Z,5.80
2018-02-09T07:23:45.287Z,5.70
2018-02-09T07:26:13.673Z,5.60
2018-02-09T07:28:41.149Z,5.60
2018-02-09T07:31:08.656Z,5.60
2018-02-09T07:33:36.461Z,5.50
2018-02-09T07:36:04.017Z,5.50
2018-02-09T07:38:31.531Z,5.60
2018-02-09T07:40:59.034Z,5.70
2018-02-09T07:43:26.658Z,5.60
2018-02-09T07:45:54.218Z,5.60
2018-02-09T07:48:21.732Z,5.60
2018-02-09T07:50:49.268Z,5.60
2018-02-09T07:53:16.964Z,5.60
2018-02-09T07:55:44.537Z,5.70
2018-02-09T07:58:12.095Z,5.70
2018-02-09T08:00:39.753Z,5.80
2018-02-09T08:03:07.311Z,5.90
2018-02-09T08:05:35.297Z,6.00
2018-02-09T08:08:02.827Z,6.00
2018-02-09T08:10:31.974Z,6.00
2018-02-09T08:12:59.638Z,6.00
2018-02-09T08:15:27.214Z,6.00
2018-02-09T08:17:55.537Z,6.10
2018-02-09T08:20:23.079Z,6.10
2018-02-09T08:22:50.528Z,6.20
2018-02-09T08:25:18.063Z,6.20
2018-02-09T08:27:46.425Z,6.30
2018-02-09T08:30:14.093Z,6.20
2018-02-09T08:32:41.676Z,6.20
2018-02-09T08:35:09.994Z,6.40
2018-02-09T08:37:37.726Z,6.40
2018-02-09T08:40:05.311Z,6.40
2018-02-09T08:42:32.890Z,6.50
2018-02-09T08:45:00.469Z,6.50
2018-02-09T08:47:28.909Z,6.50
2018-02-09T08:49:56.455Z,6.50
2018-02-09T08:52:24.028Z,6.50
2018-02-09T08:54:51.732Z,6.50
2018-02-09T08:57:19.322Z,6.60
2018-02-09T08:59:46.944Z,6.60
2018-02-09T09:02:14.986Z,6.50
2018-02-09T09:04:42.588Z,6.60
2018-02-09T09:07:10.121Z,6.80
2018-02-09T09:09:37.647Z,6.80
2018-02-09T09:12:05.251Z,6.80
2018-02-09T09:14:32.878Z,6.80
2018-02-09T09:17:00.425Z,6.90
2018-02-09T09:19:27.967Z,6.80
2018-02-09T09:21:55.550Z,6.80
2018-02-09T09:24:23.078Z,6.90
2018-02-09T09:26:50.683Z,7.00
2018-02-09T09:29:18.221Z,7.00
2018-02-09T09:31:45.843Z,7.10
2018-02-09T09:34:13.367Z,7.10
2018-02-09T09:36:40.897Z,7.00
2018-02-09T09:39:08.477Z,7.00
2018-02-09T09:41:36.025Z,7.20
2018-02-09T09:44:03.632Z,7.40
2018-02-09T09:46:31.094Z,7.30
2018-02-09T09:48:59.399Z,7.20
2018-02-09T09:51:27.805Z,7.40
2018-02-09T09:53:55.461Z,7.30
2018-02-09T09:56:23.168Z,7.40
2018-02-09T09:58:50.760Z,7.40
2018-02-09T10:01:34.056Z,7.40
2018-02-09T10:04:01.636Z,7.40
2018-02-09T10:06:29.196Z,7.30
2018-02-09T10:08:56.786Z,7.40
2018-02-09T10:11:24.435Z,7.50
2018-02-09T10:13:52.035Z,7.60
2018-02-09T10:16:19.585Z,7.60
2018-02-09T10:18:47.216Z,7.60
2018-02-09T10:21:14.770Z,7.60
2018-02-09T10:23:43.357Z,7.70
2018-02-09T10:26:10.916Z,7.60
2018-02-09T10:28:39.332Z,7.70
2018-02-09T10:31:06.995Z,7.70
2018-02-09T10:33:34.594Z,7.70
2018-02-09T10:36:02.187Z,7.60
2018-02-09T10:38:30.507Z,7.40
2018-02-09T10:40:58.083Z,7.40
2018-02-09T10:43:25.649Z,7.50
2018-02-09T10:45:53.375Z,7.40
2018-02-09T10:48:20.938Z,7.60
2018-02-09T10:50:48.525Z,7.60
2018-02-09T10:53:16.183Z,7.60
2018-02-09T10:55:43.772Z,7.70
2018-02-09T10:58:11.277Z,7.70
2018-02-09T11:00:44.526Z,7.70
2018-02-09T11:03:13.102Z,8.00
2018-02-09T11:05:41.518Z,8.00
2018-02-09T11:08:09.040Z,8.00
2018-02-09T11:10:36.659Z,8.00
2018-02-09T11:13:10.170Z,7.90
2018-02-09T11:15:37.904Z,8.00
2018-02-09T11:18:05.433Z,7.90
2018-02-09T11:20:32.939Z,8.20
2018-02-09T11:23:00.536Z,8.30
2018-02-09T11:25:28.214Z,8.00
2018-02-09T11:27:55.760Z,8.10
2018-02-09T11:30:23.288Z,8.20
2018-02-09T11:32:51.082Z,8.10
2018-02-09T11:35:18.689Z,8.20
2018-02-09T11:37:46.268Z,8.50
2018-02-09T11:40:14.036Z,8.80
2018-02-09T11:42:41.612Z,9.00
2018-02-09T11:45:09.109Z,9.50
2018-02-09T11:47:36.662Z,9.60
2018-02-09T11:50:04.996Z,9.90
2018-02-09T11:52:32.545Z,9.90
2018-02-09T11:55:00.114Z,9.70
2018-02-09T11:57:27.658Z,9.60
2018-02-09T11:59:55.144Z,9.60
2018-02-09T12:02:22.665Z,9.50
2018-02-09T12:04:50.243Z,9.40
2018-02-09T12:07:17.762Z,9.20
2018-02-09T12:09:46.056Z,9.00
2018-02-09T12:12:13.582Z,9.00
2018-02-09T12:14:42.672Z,8.70
2018-02-09T12:17:10.281Z,8.70
2018-02-09T12:19:38.566Z,8.80
2018-02-09T12:22:06.191Z,9.00
2018-02-09T12:24:34.519Z,9.10
2018-02-09T12:27:02.092Z,9.10
2018-02-09T12:29:29.654Z,9.30
2018-02-09T12:31:57.215Z,9.40
2018-02-09T12:34:24.737Z,9.30
2018-02-09T12:36:52.360Z,9.30
2018-02-09T12:39:19.912Z,9.40
2018-02-09T12:41:47.543Z,9.70
2018-02-09T12:44:15.080Z,10.10
2018-02-09T12:46:42.627Z,10.80
2018-02-09T12:49:10.411Z,11.80
2018-02-09T12:51:37.947Z,12.50
2018-02-09T12:54:05.506Z,13.10
2018-02-09T12:56:33.100Z,13.50
2018-02-09T12:59:00.801Z,13.50
2018-02-09T13:01:28.426Z,13.10
2018-02-09T13:03:55.958Z,13.30
2018-02-09T13:06:23.438Z,13.70
2018-02-09T13:08:50.899Z,14.00
2018-02-09T13:11:18.461Z,14.00
2018-02-09T13:13:46.159Z,13.70
2018-02-09T13:16:13.695Z,13.80
2018-02-09T13:18:48.188Z,14.10
2018-02-09T13:21:15.819Z,14.20
2018-02-09T13:23:56.020Z,14.20
2018-02-09T13:26:23.558Z,14.20
2018-02-09T13:28:59.975Z,14.40
2018-02-09T13:31:27.479Z,14.60
2018-02-09T13:33:55.015Z,13.50
2018-02-09T13:36:35.054Z,13.60
2018-02-09T13:39:02.652Z,13.60
2018-02-09T13:41:30.120Z,13.80
2018-02-09T13:43:57.697Z,14.20
2018-02-09T13:46:25.323Z,14.60
2018-02-09T13:48:52.894Z,14.50
2018-02-09T13:51:20.376Z,14.80
2018-02-09T13:53:47.871Z,15.10
2018-02-09T13:56:15.434Z,15.20
2018-02-09T13:58:42.924Z,15.10
2018-02-09T14:01:10.738Z,15.50
2018-02-09T14:03:38.301Z,16.20
2018-02-09T14:06:06.652Z,16.60
2018-02-09T14:08:34.246Z,17.00
2018-02-09T14:11:01.833Z,17.40
2018-02-09T14:13:30.180Z,17.50
2018-02-09T14:15:57.757Z,17.40
2018-02-09T14:18:26.047Z,17.30
2018-02-09T14:20:54.371Z,18.00
2018-02-09T14:23:21.919Z,18.00
2018-02-09T14:25:49.444Z,18.10
2018-02-09T14:28:17.724Z,19.20
2018-02-09T14:30:46.094Z,19.40
2018-02-09T14:33:13.722Z,19.40
2018-02-09T14:35:41.256Z,19.60
2018-02-09T14:38:08.855Z,19.60
2018-02-09T14:40:36.419Z,19.20
2018-02-09T14:43:03.975Z,19.60
2018-02-09T14:45:31.452Z,19.90
2018-02-09T14:47:58.992Z,20.00
2018-02-09T14:50:26.563Z,20.00
2018-02-09T14:52:54.098Z,19.60
2018-02-09T14:55:21.566Z,19.20
2018-02-09T14:57:49.136Z,18.90
2018-02-09T15:00:16.754Z,19.10
2018-02-09T15:02:44.324Z,19.60
2018-02-09T15:05:11.888Z,19.40
2018-02-09T15:07:39.382Z,19.70
2018-02-09T15:10:06.905Z,20.10
2018-02-09T15:12:34.520Z,19.90
2018-02-09T15:15:02.003Z,19.70
2018-02-09T15:17:29.639Z,19.90
2018-02-09T15:19:57.222Z,19.90
2018-02-09T15:22:24.783Z,19.80
2018-02-09T15:24:52.861Z,19.70
2018-02-09T15:27:20.544Z,19.60
2018-02-09T15:29:48.063Z,19.70
2018-02-09T15:32:15.638Z,20.30
2018-02-09T15:34:43.162Z,20.90
2018-02-09T15:37:11.460Z,20.40
2018-02-09T15:39:39.116Z,20.40
2018-02-09T15:42:06.667Z,20.10
2018-02-09T15:44:34.362Z,20.00
2018-02-09T15:47:01.939Z,19.70
2018-02-09T15:49:29.398Z,18.90
2018-02-09T15:51:56.991Z,18.70
2018-02-09T15:54:25.329Z,18.40
2018-02-09T15:56:52.896Z,18.30
2018-02-09T15:59:20.474Z,18.00
2018-02-09T16:01:49.524Z,15.30
2018-02-09T16:04:17.069Z,15.30
2018-02-09T16:06:44.598Z,14.70
2018-02-09T16:09:12.149Z,14.00
2018-02-09T16:11:39.865Z,13.80
2018-02-09T16:14:07.431Z,12.80
2018-02-09T16:16:35.057Z,11.90
2018-02-09T16:19:03.471Z,10.50
2018-02-09T16:21:30.999Z,10.50
2018-02-09T16:23:59.333Z,9.60
2018-02-09T16:26:27.125Z,9.60
2018-02-09T16:28:54.637Z,9.20
2018-02-09T16:31:22.197Z,9.00
2018-02-09T16:33:49.742Z,8.80
2018-02-09T16:36:17.307Z,8.70
2018-02-09T16:38:44.764Z,8.50
2018-02-09T16:41:12.241Z,8.30
2018-02-09T16:43:40.314Z,8.10
2018-02-09T16:46:07.868Z,8.10
2018-02-09T16:48:35.381Z,7.90
2018-02-09T16:51:02.883Z,7.90
2018-02-09T16:53:30.404Z,7.90
2018-02-09T16:55:57.969Z,7.90
2018-02-09T16:58:25.524Z,7.90
2018-02-09T17:00:53.067Z,7.80
2018-02-09T17:03:20.744Z,7.80
2018-02-09T17:05:48.288Z,7.80
2018-02-09T17:08:16.570Z,7.60
2018-02-09T17:10:44.916Z,7.60
2018-02-09T17:13:12.471Z,7.60
2018-02-09T17:15:40.064Z,7.50
2018-02-09T17:18:07.584Z,7.50
2018-02-09T17:20:35.192Z,7.50
2018-02-09T17:23:03.306Z,7.50
2018-02-09T17:25:30.945Z,7.40
2018-02-09T17:27:58.453Z,7.30
2018-02-09T17:30:25.995Z,7.20
2018-02-09T17:32:53.573Z,7.10
2018-02-09T17:35:21.130Z,7.10
2018-02-09T17:37:48.708Z,7.00
2018-02-09T17:40:16.334Z,6.90
2018-02-09T17:42:44.525Z,6.80
2018-02-09T17:45:12.104Z,6.80
2018-02-09T17:47:39.579Z,6.70
2018-02-09T17:50:08.258Z,6.60
2018-02-09T17:52:35.750Z,6.60
2018-02-09T17:55:03.327Z,6.60
2018-02-09T17:57:30.980Z,6.50
2018-02-09T17:59:58.701Z,6.50
2018-02-09T18:02:27.089Z,6.20
2018-02-09T18:04:54.580Z,6.20
2018-02-09T18:07:22.101Z,6.10
2018-02-09T18:09:50.472Z,6.20
2018-02-09T18:12:18.301Z,6.20
2018-02-09T18:14:45.860Z,6.20
2018-02-09T18:17:13.377Z,6.30
2018-02-09T18:19:41.281Z,6.30
2018-02-09T18:22:08.809Z,6.20
2018-02-09T18:24:36.365Z,6.30
2018-02-09T18:27:04.755Z,6.10
2018-02-09T18:29:32.304Z,6.10
2018-02-09T18:32:00.650Z,6.20
2018-02-09T18:34:28.177Z,6.20
2018-02-09T18:36:55.792Z,6.20
2018-02-09T18:39:23.294Z,6.30
2018-02-09T18:41:50.777Z,6.20
2018-02-09T18:44:18.308Z,6.20
2018-02-09T18:46:45.878Z,6.20
2018-02-09T18:49:13.516Z,6.20
2018-02-09T18:51:41.180Z,6.20
2018-02-09T18:54:08.859Z,6.20
2018-02-09T18:56:36.475Z,6.20
2018-02-09T18:59:04.046Z,6.20
2018-02-09T19:01:31.579Z,6.20
2018-02-09T19:03:59.464Z,6.20
2018-02-09T19:06:27.015Z,6.30
2018-02-09T19:08:55.341Z,6.30
2018-02-09T19:11:23.366Z,6.30
2018-02-09T19:13:51.663Z,6.30
2018-02-09T19:16:19.176Z,6.30
2018-02-09T19:18:46.696Z,6.30
2018-02-09T19:21:14.333Z,6.40
2018-02-09T19:23:42.258Z,6.40
2018-02-09T19:26:09.836Z,6.50
2018-02-09T19:28:37.394Z,6.50
2018-02-09T19:31:05.009Z,6.50
2018-02-09T19:33:32.573Z,6.50
2018-02-09T19:36:00.078Z,6.40
2018-02-09T19:38:27.601Z,6.40
2018-02-09T19:40:55.175Z,6.50
2018-02-09T19:43:22.727Z,6.40
2018-02-09T19:45:50.277Z,6.40
2018-02-09T19:48:17.947Z,6.40
2018-02-09T19:50:45.478Z,6.40
2018-02-09T19:53:13.097Z,6.30
2018-02-09T19:55:40.672Z,6.20
2018-02-09T19:58:08.260Z,6.20
2018-02-09T20:00:35.818Z,6.30
2018-02-09T20:03:03.358Z,6.30
2018-02-09T20:05:31.127Z,6.20
2018-02-09T20:07:59.114Z,6.10
2018-02-09T20:10:26.640Z,6.10
2018-02-09T20:13:10.759Z,6.00
2018-02-09T20:15:38.353Z,6.00
2018-02-09T20:18:06.731Z,6.10
2018-02-09T20:20:34.608Z,6.00
2018-02-09T20:23:02.114Z,6.00
2018-02-09T20:25:29.714Z,6.00
2018-02-09T20:27:57.253Z,6.10
2018-02-09T20:30:24.783Z,6.00
2018-02-09T20:32:52.329Z,6.00
2018-02-09T20:35:19.853Z,6.10
2018-02-09T20:37:48.173Z,6.10
2018-02-09T20:40:15.765Z,6.10
2018-02-09T20:42:43.324Z,6.20
2018-02-09T20:45:12.406Z,6.10
2018-02-09T20:47:40.008Z,6.10
2018-02-09T20:50:08.211Z,6.00
2018-02-09T20:52:35.794Z,6.00
2018-02-09T20:55:03.366Z,5.90
2018-02-09T20:57:30.891Z,5.80
2018-02-09T20:59:58.487Z,5.80
2018-02-09T21:02:26.031Z,5.90
2018-02-09T21:04:53.519Z,5.90
2018-02-09T21:07:20.959Z,5.90
2018-02-09T21:09:48.513Z,5.90
2018-02-09T21:12:16.180Z,6.00
2018-02-09T21:14:43.795Z,6.00
2018-02-09T21:17:11.380Z,6.00
2018-02-09T21:19:38.947Z,6.00
2018-02-09T21:22:06.473Z,6.00
2018-02-09T21:24:33.979Z,6.10
2018-02-09T21:27:01.527Z,6.10
2018-02-09T21:29:29.128Z,6.10
2018-02-09T21:31:56.639Z,6.10
2018-02-09T21:34:24.199Z,6.10
2018-02-09T21:36:51.788Z,6.10
2018-02-09T21:39:19.247Z,6.10
2018-02-09T21:41:46.862Z,6.10
2018-02-09T21:44:14.449Z,6.10
2018-02-09T21:46:41.995Z,6.00
2018-02-09T21:49:09.591Z,6.00
2018-02-09T21:51:37.132Z,6.00
2018-02-09T21:54:04.582Z,6.00
2018-02-09T21:56:32.132Z,6.00
2018-02-09T21:58:59.754Z,6.00
2018-02-09T22:01:27.347Z,6.00
2018-02-09T22:03:54.926Z,6.00
2018-02-09T22:06:22.496Z,6.00
2018-02-09T22:08:50.612Z,6.00
2018-02-09T22:11:18.916Z,5.70
2018-02-09T22:13:46.471Z,5.70
2018-02-09T22:16:14.035Z,5.70
2018-02-09T22:18:41.589Z,5.60
2018-02-09T22:21:09.129Z,5.60
2018-02-09T22:23:36.914Z,5.40
2018-02-09T22:26:04.470Z,5.40
2018-02-09T22:28:32.045Z,5.30
2018-02-09T22:30:59.556Z,5.30
2018-02-09T22:33:27.822Z,5.20
2018-02-09T22:35:55.336Z,5.10
2018-02-09T22:38:22.845Z,5.10
2018-02-09T22:40:50.506Z,5.10
2018-02-09T22:43:17.951Z,5.20
2018-02-09T22:45:45.485Z,5.20
2018-02-09T22:48:13.100Z,5.20
2018-02-09T22:50:40.605Z,5.10
2018-02-09T22:53:08.157Z,5.00
2018-02-09T22:55:36.115Z,5.00
2018-02-09T22:58:03.651Z,5.00
2018-02-09T23:00:31.974Z,5.00
2018-02-09T23:02:59.433Z,5.00
2018-02-09T23:05:27.012Z,5.00
2018-02-09T23:07:54.510Z,5.00
2018-02-09T23:10:22.788Z,4.90
2018-02-09T23:12:50.337Z,4.90
2018-02-09T23:15:17.811Z,4.90
2018-02-09T23:17:45.360Z,4.90
2018-02-09T23:20:13.980Z,5.00
2018-02-09T23:22:41.829Z,5.00
2018-02-09T23:25:09.378Z,5.00
2018-02-09T23:27:36.957Z,5.00
2018-02-09T23:30:04.593Z,5.00
2018-02-09T23:32:32.747Z,5.00
2018-02-09T23:37:35.150Z,5.10
2018-02-09T23:40:02.740Z,5.20
2018-02-09T23:42:30.323Z,5.30
2018-02-09T23:44:57.825Z,5.30
2018-02-09T23:47:26.158Z,5.30
2018-02-09T23:49:53.658Z,5.30
2018-02-09T23:52:22.037Z,5.30
2018-02-09T23:54:53.219Z,5.30
2018-02-09T23:57:20.773Z,5.30
2018-02-09T23:59:48.298Z,5.30
